createdAt,value
2022-11-05T00:00:38.674Z,10.70
2022-11-05T00:03:25.415Z,8.80
2022-11-05T00:06:12.498Z,9.60
2022-11-05T00:08:59.526Z,10.40
2022-11-05T00:11:47.002Z,10.20
2022-11-05T00:14:33.429Z,9.60
2022-11-05T00:17:00.791Z,8.00
2022-11-05T00:19:28.026Z,9.60
2022-11-05T00:22:13.730Z,7.90
2022-11-05T00:24:59.699Z,8.50
2022-11-05T00:27:26.971Z,6.70
2022-11-05T00:29:54.332Z,7.00
2022-11-05T00:32:23.314Z,6.00
2022-11-05T00:34:50.770Z,4.10
2022-11-05T00:37:18.031Z,2.70
2022-11-05T00:39:45.270Z,2.60
2022-11-05T00:42:34.030Z,2.80
2022-11-05T00:45:01.512Z,1.70
2022-11-05T00:47:47.908Z,1.40
2022-11-05T00:50:15.250Z,1.50
2022-11-05T00:53:01.950Z,1.60
2022-11-05T00:55:39.325Z,1.90
2022-11-05T00:58:21.393Z,1.80
2022-11-05T01:00:57.126Z,2.00
2022-11-05T01:03:48.845Z,2.10
2022-11-05T01:06:18.740Z,1.80
2022-11-05T01:08:46.809Z,2.20
2022-11-05T01:11:37.503Z,1.90
2022-11-05T01:14:08.053Z,1.90
2022-11-05T01:16:35.739Z,2.20
2022-11-05T01:19:04.790Z,2.30
2022-11-05T01:21:32.337Z,2.50
2022-11-05T01:23:59.478Z,2.40
2022-11-05T01:26:27.354Z,2.80
2022-11-05T01:28:56.421Z,2.30
2022-11-05T01:31:24.317Z,2.10
2022-11-05T01:33:51.799Z,2.30
2022-11-05T01:36:19.550Z,2.50
2022-11-05T01:38:46.994Z,2.90
2022-11-05T01:41:14.152Z,2.20
2022-11-05T01:43:51.935Z,2.10
2022-11-05T01:46:30.371Z,2.30
2022-11-05T01:49:04.436Z,2.50
2022-11-05T01:51:31.930Z,2.40
2022-11-05T01:54:00.412Z,1.80
2022-11-05T01:56:32.627Z,2.10
2022-11-05T01:59:04.334Z,2.00
2022-11-05T02:01:32.300Z,2.50
2022-11-05T02:04:03.236Z,2.30
2022-11-05T02:06:33.552Z,2.20
2022-11-05T02:09:28.654Z,1.90
2022-11-05T02:11:56.036Z,2.10
2022-11-05T02:14:23.679Z,2.50
2022-11-05T02:17:00.141Z,2.00
2022-11-05T02:19:27.414Z,2.00
2022-11-05T02:21:57.824Z,2.10
2022-11-05T02:24:43.409Z,1.80
2022-11-05T02:27:19.108Z,1.70
2022-11-05T02:29:55.330Z,1.50
2022-11-05T02:32:53.491Z,1.70
2022-11-05T02:35:39.689Z,1.50
2022-11-05T02:38:14.121Z,1.40
2022-11-05T02:40:55.510Z,1.70
2022-11-05T02:43:28.577Z,1.50
2022-11-05T02:46:31.270Z,1.60
2022-11-05T02:49:13.893Z,1.40
2022-11-05T02:51:44.351Z,1.40
2022-11-05T02:54:31.735Z,1.20
2022-11-05T02:56:59.804Z,1.60
2022-11-05T02:59:27.166Z,1.50
2022-11-05T03:01:54.962Z,1.60
2022-11-05T03:04:23.251Z,1.30
2022-11-05T03:07:31.210Z,1.30
2022-11-05T03:10:03.271Z,1.50
2022-11-05T03:12:51.930Z,1.40
2022-11-05T03:15:43.682Z,1.30
2022-11-05T03:18:49.412Z,1.10
2022-11-05T03:21:28.230Z,1.20
2022-11-05T03:24:06.464Z,1.60
2022-11-05T03:26:46.195Z,1.50
2022-11-05T03:29:19.351Z,1.40
2022-11-05T03:31:48.833Z,1.20
2022-11-05T03:34:18.091Z,1.70
2022-11-05T03:36:49.846Z,1.10
2022-11-05T03:39:22.411Z,1.40
2022-11-05T03:41:52.742Z,1.30
2022-11-05T03:44:26.637Z,1.10
2022-11-05T03:46:57.570Z,1.40
2022-11-05T03:49:35.168Z,1.30
2022-11-05T03:52:07.358Z,1.40
2022-11-05T03:54:35.120Z,1.40
2022-11-05T03:57:09.835Z,1.40
2022-11-05T03:59:45.394Z,1.00
2022-11-05T04:02:14.452Z,1.30
2022-11-05T04:04:42.251Z,1.80
2022-11-05T04:07:29.375Z,1.70
2022-11-05T04:10:15.850Z,1.50
2022-11-05T04:13:02.273Z,1.90
2022-11-05T04:15:55.817Z,1.40
2022-11-05T04:18:24.585Z,1.40
2022-11-05T04:21:10.416Z,1.30
2022-11-05T04:23:56.263Z,1.30
2022-11-05T04:26:23.710Z,1.70
2022-11-05T04:29:10.065Z,1.70
2022-11-05T04:31:38.133Z,1.50
2022-11-05T04:34:05.434Z,2.00
2022-11-05T04:36:32.630Z,1.20
2022-11-05T04:38:59.870Z,1.50
2022-11-05T04:41:27.010Z,1.50
2022-11-05T04:43:54.172Z,1.50
2022-11-05T04:46:21.318Z,1.80
2022-11-05T04:48:48.403Z,1.70
2022-11-05T04:51:15.815Z,1.50
2022-11-05T04:53:42.969Z,1.40
2022-11-05T04:56:10.941Z,2.20
2022-11-05T04:58:44.641Z,1.40
2022-11-05T05:01:29.907Z,1.90
2022-11-05T05:03:57.057Z,1.80
2022-11-05T05:06:24.418Z,1.70
2022-11-05T05:08:51.980Z,1.60
2022-11-05T05:11:21.915Z,1.70
2022-11-05T05:13:49.831Z,1.60
2022-11-05T05:16:23.982Z,1.60
2022-11-05T05:18:51.754Z,1.60
2022-11-05T05:21:39.193Z,1.50
2022-11-05T05:24:09.032Z,1.80
2022-11-05T05:26:38.471Z,1.90
2022-11-05T05:29:07.279Z,1.70
2022-11-05T05:31:34.824Z,1.60
2022-11-05T05:34:02.392Z,2.10
2022-11-05T05:36:29.737Z,1.90
2022-11-05T05:38:56.788Z,1.90
2022-11-05T05:41:24.339Z,1.60
2022-11-05T05:43:51.487Z,1.80
2022-11-05T05:46:19.939Z,1.50
2022-11-05T05:48:51.850Z,1.60
2022-11-05T05:51:20.017Z,1.80
2022-11-05T05:53:47.271Z,1.50
2022-11-05T05:56:15.463Z,1.60
2022-11-05T05:58:42.682Z,1.40
2022-11-05T06:01:18.634Z,1.80
2022-11-05T06:03:47.651Z,1.20
2022-11-05T06:06:15.612Z,1.90
2022-11-05T06:08:43.274Z,2.10
2022-11-05T06:11:10.451Z,1.90
2022-11-05T06:13:38.213Z,1.70
2022-11-05T06:16:07.486Z,1.70
2022-11-05T06:18:35.152Z,1.70
2022-11-05T06:21:06.727Z,1.80
2022-11-05T06:23:35.141Z,1.30
2022-11-05T06:26:02.947Z,1.70
2022-11-05T06:28:30.414Z,1.70
2022-11-05T06:30:58.249Z,1.60
2022-11-05T06:33:26.947Z,1.90
2022-11-05T06:35:54.812Z,1.70
2022-11-05T06:38:21.955Z,1.80
2022-11-05T06:40:49.130Z,2.10
2022-11-05T06:43:16.874Z,1.90
2022-11-05T06:45:44.123Z,2.10
2022-11-05T06:48:11.289Z,1.40
2022-11-05T06:50:38.652Z,2.10
2022-11-05T06:53:05.887Z,1.50
2022-11-05T06:55:33.152Z,1.70
2022-11-05T06:58:00.812Z,1.40
2022-11-05T07:00:28.262Z,1.90
2022-11-05T07:02:58.909Z,1.70
2022-11-05T07:05:26.869Z,1.50
2022-11-05T07:07:54.209Z,1.70
2022-11-05T07:10:21.370Z,1.80
2022-11-05T07:12:48.734Z,1.70
2022-11-05T07:15:16.141Z,2.00
2022-11-05T07:17:43.230Z,1.60
2022-11-05T07:20:11.381Z,2.00
2022-11-05T07:22:38.943Z,1.60
2022-11-05T07:25:07.117Z,1.40
2022-11-05T07:27:40.519Z,2.50
2022-11-05T07:30:09.277Z,2.10
2022-11-05T07:32:40.562Z,2.20
2022-11-05T07:35:09.367Z,2.60
2022-11-05T07:37:46.995Z,2.70
2022-11-05T07:40:15.312Z,2.70
2022-11-05T07:42:47.068Z,2.80
2022-11-05T07:45:15.154Z,1.90
2022-11-05T07:47:50.335Z,3.10
2022-11-05T07:50:19.476Z,2.30
2022-11-05T07:52:49.003Z,2.60
2022-11-05T07:55:17.224Z,2.40
2022-11-05T07:57:48.930Z,3.10
2022-11-05T08:00:20.277Z,3.00
2022-11-05T08:03:20.596Z,3.20
2022-11-05T08:05:48.660Z,3.20
2022-11-05T08:08:18.173Z,3.00
2022-11-05T08:10:45.946Z,2.50
2022-11-05T08:13:13.962Z,2.90
2022-11-05T08:15:43.057Z,2.90
2022-11-05T08:18:18.242Z,3.30
2022-11-05T08:20:47.147Z,3.50
2022-11-05T08:23:15.041Z,3.10
2022-11-05T08:25:42.658Z,2.80
2022-11-05T08:28:12.559Z,2.70
2022-11-05T08:30:39.912Z,2.50
2022-11-05T08:33:10.756Z,2.70
2022-11-05T08:35:40.406Z,2.70
2022-11-05T08:38:09.429Z,1.80
2022-11-05T08:40:38.238Z,1.90
2022-11-05T08:43:07.264Z,2.40
2022-11-05T08:45:38.226Z,2.70
2022-11-05T08:48:15.262Z,2.10
2022-11-05T08:50:43.549Z,2.40
2022-11-05T08:53:11.862Z,2.10
2022-11-05T08:55:39.268Z,2.50
2022-11-05T08:58:11.243Z,2.10
2022-11-05T09:00:39.496Z,2.60
2022-11-05T09:03:09.241Z,1.70
2022-11-05T09:05:38.731Z,1.80
2022-11-05T09:08:11.935Z,2.00
2022-11-05T09:10:40.911Z,2.00
2022-11-05T09:13:11.741Z,1.70
2022-11-05T09:15:42.053Z,2.20
2022-11-05T09:18:12.559Z,1.70
2022-11-05T09:20:40.561Z,1.50
2022-11-05T09:23:09.184Z,1.90
2022-11-05T09:25:36.812Z,1.90
2022-11-05T09:28:21.782Z,1.80
2022-11-05T09:30:53.017Z,2.00
2022-11-05T09:33:22.775Z,1.50
2022-11-05T09:35:50.401Z,1.50
2022-11-05T09:38:18.171Z,1.50
2022-11-05T09:41:04.771Z,1.40
2022-11-05T09:43:54.017Z,1.60
2022-11-05T09:46:26.183Z,1.60
2022-11-05T09:48:56.677Z,1.80
2022-11-05T09:51:24.384Z,1.50
2022-11-05T09:53:52.035Z,1.90
2022-11-05T09:56:26.069Z,1.30
2022-11-05T09:59:34.490Z,1.60
2022-11-05T10:02:10.562Z,1.80
2022-11-05T10:04:38.329Z,1.40
2022-11-05T10:07:07.085Z,1.50
2022-11-05T10:09:43.351Z,1.60
2022-11-05T10:12:21.148Z,1.50
2022-11-05T10:14:52.671Z,1.40
2022-11-05T10:17:24.682Z,2.00
2022-11-05T10:20:29.608Z,1.70
2022-11-05T10:23:00.734Z,1.70
2022-11-05T10:25:33.467Z,1.90
2022-11-05T10:28:00.968Z,1.90
2022-11-05T10:30:28.113Z,2.10
2022-11-05T10:32:58.769Z,2.40
2022-11-05T10:35:27.749Z,2.50
2022-11-05T10:37:54.787Z,2.00
2022-11-05T10:40:44.063Z,2.00
2022-11-05T10:43:26.213Z,2.90
2022-11-05T10:46:01.093Z,2.30
2022-11-05T10:48:48.848Z,2.40
2022-11-05T10:51:17.030Z,2.10
2022-11-05T10:53:53.241Z,2.00
2022-11-05T10:56:35.665Z,2.40
2022-11-05T10:59:09.402Z,2.10
2022-11-05T11:01:39.699Z,1.50
2022-11-05T11:04:07.055Z,2.10
2022-11-05T11:06:38.394Z,1.30
2022-11-05T11:09:20.079Z,2.00
2022-11-05T11:11:59.929Z,2.00
2022-11-05T11:14:27.900Z,2.20
2022-11-05T11:16:58.035Z,2.80
2022-11-05T11:19:33.612Z,2.10
2022-11-05T11:22:03.865Z,2.70
2022-11-05T11:24:37.575Z,2.30
2022-11-05T11:27:28.497Z,2.40
2022-11-05T11:29:57.818Z,2.20
2022-11-05T11:32:28.360Z,2.20
2022-11-05T11:34:57.520Z,2.40
2022-11-05T11:37:45.071Z,2.20
2022-11-05T11:40:17.787Z,2.20
2022-11-05T11:42:47.973Z,2.70
2022-11-05T11:45:40.522Z,2.20
2022-11-05T11:48:12.997Z,2.90
2022-11-05T11:50:46.841Z,2.70
2022-11-05T11:53:34.135Z,2.30
2022-11-05T11:56:15.505Z,2.80
2022-11-05T11:58:48.688Z,2.50
2022-11-05T12:01:19.243Z,2.80
2022-11-05T12:04:08.070Z,2.50
2022-11-05T12:06:55.281Z,2.50
2022-11-05T12:09:28.504Z,2.40
2022-11-05T12:12:02.433Z,2.70
2022-11-05T12:14:57.292Z,2.70
2022-11-05T12:17:30.677Z,2.50
2022-11-05T12:20:17.079Z,1.90
2022-11-05T12:23:02.770Z,2.60
2022-11-05T12:25:36.584Z,2.80
2022-11-05T12:28:11.213Z,2.70
2022-11-05T12:31:03.955Z,2.40
2022-11-05T12:34:02.133Z,2.40
2022-11-05T12:36:41.457Z,2.20
2022-11-05T12:39:25.621Z,1.90
2022-11-05T12:42:02.418Z,2.40
2022-11-05T12:44:30.347Z,2.20
2022-11-05T12:47:24.050Z,2.40
2022-11-05T12:50:00.016Z,2.50
2022-11-05T12:52:54.693Z,2.20
2022-11-05T12:55:24.870Z,2.60
2022-11-05T12:58:02.060Z,1.80
2022-11-05T13:00:30.374Z,1.60
2022-11-05T13:03:16.155Z,1.70
2022-11-05T13:06:08.341Z,2.20
2022-11-05T13:09:08.669Z,1.70
2022-11-05T13:11:56.759Z,2.20
2022-11-05T13:14:54.207Z,1.60
2022-11-05T13:17:28.604Z,1.60
2022-11-05T13:20:29.664Z,1.80
2022-11-05T13:23:01.148Z,2.00
2022-11-05T13:25:32.928Z,1.90
2022-11-05T13:28:11.516Z,1.80
2022-11-05T13:30:43.849Z,1.90
2022-11-05T13:33:16.447Z,2.00
2022-11-05T13:36:17.540Z,1.80
2022-11-05T13:39:00.171Z,1.80
2022-11-05T13:41:28.102Z,2.10
2022-11-05T13:44:07.908Z,2.00
2022-11-05T13:46:46.958Z,1.80
2022-11-05T13:49:48.499Z,2.10
2022-11-05T13:53:10.409Z,2.00
2022-11-05T13:55:56.642Z,1.80
2022-11-05T13:58:58.499Z,1.70
2022-11-05T14:01:44.112Z,1.90
2022-11-05T14:04:33.039Z,1.80
2022-11-05T14:07:30.693Z,1.80
2022-11-05T14:10:01.902Z,1.90
2022-11-05T14:12:32.771Z,2.20
2022-11-05T14:15:04.779Z,1.90
2022-11-05T14:17:57.911Z,2.10
2022-11-05T14:20:31.400Z,1.30
2022-11-05T14:23:37.874Z,1.90
2022-11-05T14:26:20.417Z,1.80
2022-11-05T14:28:52.549Z,2.00
2022-11-05T14:31:19.809Z,2.30
2022-11-05T14:34:03.949Z,2.30
2022-11-05T14:36:33.442Z,1.90
2022-11-05T14:39:14.749Z,2.30
2022-11-05T14:42:04.112Z,2.20
2022-11-05T14:44:35.327Z,1.90
2022-11-05T14:47:05.978Z,2.50
2022-11-05T14:50:12.188Z,2.30
2022-11-05T14:52:40.724Z,1.90
2022-11-05T14:55:29.778Z,2.40
2022-11-05T14:57:57.052Z,1.80
2022-11-05T15:00:30.367Z,2.40
2022-11-05T15:03:24.954Z,2.10
2022-11-05T15:05:53.734Z,2.20
2022-11-05T15:08:25.581Z,2.20
2022-11-05T15:10:54.996Z,2.10
2022-11-05T15:13:32.301Z,2.10
2022-11-05T15:16:00.133Z,2.60
2022-11-05T15:18:34.331Z,2.30
2022-11-05T15:21:03.155Z,2.10
2022-11-05T15:23:39.085Z,2.30
2022-11-05T15:26:32.569Z,2.70
2022-11-05T15:28:59.927Z,2.50
2022-11-05T15:31:42.075Z,3.00
2022-11-05T15:34:32.980Z,3.20
2022-11-05T15:37:02.921Z,3.50
2022-11-05T15:39:38.464Z,4.70
2022-11-05T15:42:12.675Z,3.30
2022-11-05T15:44:45.807Z,3.00
2022-11-05T15:47:24.599Z,3.30
2022-11-05T15:49:54.595Z,2.70
2022-11-05T15:52:48.579Z,2.60
2022-11-05T15:55:20.480Z,3.10
2022-11-05T15:57:51.598Z,3.10
2022-11-05T16:00:25.658Z,3.00
2022-11-05T16:03:04.558Z,2.80
2022-11-05T16:05:34.770Z,3.40
2022-11-05T16:08:04.663Z,2.80
2022-11-05T16:10:37.867Z,3.10
2022-11-05T16:13:39.737Z,3.20
2022-11-05T16:16:16.508Z,3.00
2022-11-05T16:18:44.986Z,3.60
2022-11-05T16:21:23.098Z,4.30
2022-11-05T16:23:50.772Z,3.80
2022-11-05T16:27:00.466Z,3.90
2022-11-05T16:29:26.857Z,2.90
2022-11-05T16:31:55.839Z,3.40
2022-11-05T16:34:25.960Z,3.40
2022-11-05T16:36:57.876Z,3.80
2022-11-05T16:39:26.797Z,4.00
2022-11-05T16:41:54.362Z,4.00
2022-11-05T16:44:21.721Z,5.20
2022-11-05T16:46:51.019Z,6.30
2022-11-05T16:49:19.596Z,6.20
2022-11-05T16:51:47.778Z,8.20
2022-11-05T16:54:16.072Z,8.40
2022-11-05T16:56:48.747Z,9.30
2022-11-05T16:59:16.598Z,8.50
2022-11-05T17:01:45.247Z,8.40
2022-11-05T17:04:14.052Z,8.30
2022-11-05T17:06:42.053Z,8.80
2022-11-05T17:09:09.285Z,8.10
2022-11-05T17:11:36.546Z,8.00
2022-11-05T17:14:04.526Z,8.10
2022-11-05T17:16:32.585Z,8.60
2022-11-05T17:19:00.642Z,9.50
2022-11-05T17:21:29.845Z,8.70
2022-11-05T17:23:57.729Z,9.90
2022-11-05T17:26:26.290Z,10.00
2022-11-05T17:28:54.490Z,10.60
2022-11-05T17:31:21.831Z,10.00
2022-11-05T17:33:50.610Z,10.90
2022-11-05T17:36:18.791Z,10.30
2022-11-05T17:38:46.452Z,9.00
2022-11-05T17:41:15.770Z,9.50
2022-11-05T17:43:44.010Z,9.10
2022-11-05T17:46:13.550Z,10.10
2022-11-05T17:48:41.945Z,9.40
2022-11-05T17:51:12.002Z,9.40
2022-11-05T17:53:40.097Z,10.70
2022-11-05T17:56:12.460Z,9.70
2022-11-05T17:58:40.829Z,10.60
2022-11-05T18:01:09.852Z,9.60
2022-11-05T18:03:37.798Z,9.80
2022-11-05T18:06:07.468Z,9.60
2022-11-05T18:08:35.588Z,9.40
2022-11-05T18:11:03.957Z,8.60
2022-11-05T18:13:32.149Z,8.20
2022-11-05T18:15:59.698Z,8.20
2022-11-05T18:18:28.352Z,9.10
2022-11-05T18:21:00.516Z,7.40
2022-11-05T18:23:30.379Z,7.20
2022-11-05T18:25:58.646Z,6.40
2022-11-05T18:28:27.249Z,7.30
2022-11-05T18:30:55.607Z,7.20
2022-11-05T18:33:24.088Z,6.20
2022-11-05T18:35:53.291Z,7.10
2022-11-05T18:38:22.870Z,6.80
2022-11-05T18:40:50.944Z,6.40
2022-11-05T18:43:19.222Z,6.70
2022-11-05T18:45:46.588Z,5.90
2022-11-05T18:48:14.884Z,7.50
2022-11-05T18:50:42.231Z,5.40
2022-11-05T18:53:10.291Z,6.00
2022-11-05T18:55:40.366Z,6.60
2022-11-05T18:58:08.591Z,6.10
2022-11-05T19:00:40.253Z,5.80
2022-11-05T19:03:08.604Z,7.80
2022-11-05T19:05:37.090Z,6.60
2022-11-05T19:08:05.645Z,7.10
2022-11-05T19:10:33.638Z,7.20
2022-11-05T19:13:03.525Z,7.30
2022-11-05T19:15:31.629Z,6.80
2022-11-05T19:17:59.610Z,7.00
2022-11-05T19:20:28.135Z,7.10
2022-11-05T19:22:56.150Z,6.20
2022-11-05T19:25:24.228Z,7.10
2022-11-05T19:27:53.509Z,6.30
2022-11-05T19:30:21.587Z,6.50
2022-11-05T19:32:50.472Z,6.50
2022-11-05T19:35:19.406Z,7.30
2022-11-05T19:37:47.460Z,7.60
2022-11-05T19:40:15.524Z,9.50
2022-11-05T19:42:43.475Z,7.80
2022-11-05T19:45:38.187Z,8.80
2022-11-05T19:47:59.810Z,7.90
2022-11-05T19:50:29.006Z,8.50
2022-11-05T19:52:56.990Z,7.80
2022-11-05T19:55:25.648Z,9.10
2022-11-05T19:57:55.470Z,9.30
2022-11-05T20:00:23.451Z,8.90
2022-11-05T20:02:52.652Z,9.30
2022-11-05T20:05:20.708Z,9.00
2022-11-05T20:07:52.730Z,9.30
2022-11-05T20:10:21.674Z,10.30
2022-11-05T20:12:50.049Z,10.50
2022-11-05T20:15:20.140Z,10.30
2022-11-05T20:17:54.932Z,9.30
2022-11-05T20:20:22.921Z,10.40
2022-11-05T20:22:53.575Z,11.30
2022-11-05T20:25:21.833Z,10.70
2022-11-05T20:27:50.750Z,10.60
2022-11-05T20:30:19.560Z,9.10
2022-11-05T20:32:47.484Z,10.40
2022-11-05T20:35:15.767Z,9.80
2022-11-05T20:37:43.548Z,10.10
2022-11-05T20:40:14.871Z,11.10
2022-11-05T20:42:43.792Z,9.60
2022-11-05T20:45:12.534Z,9.00
2022-11-05T20:47:41.205Z,9.60
2022-11-05T20:50:11.771Z,9.40
2022-11-05T20:52:40.013Z,10.20
2022-11-05T20:55:09.989Z,9.20
2022-11-05T20:57:39.189Z,9.70
2022-11-05T21:00:09.952Z,10.90
2022-11-05T21:02:40.298Z,9.60
2022-11-05T21:05:10.211Z,11.10
2022-11-05T21:07:38.236Z,9.20
2022-11-05T21:10:07.329Z,10.80
2022-11-05T21:12:35.179Z,9.80
2022-11-05T21:15:03.970Z,10.30
2022-11-05T21:17:31.815Z,10.70
2022-11-05T21:19:59.701Z,9.80
2022-11-05T21:22:27.759Z,11.10
2022-11-05T21:24:57.254Z,10.50
2022-11-05T21:27:25.214Z,10.40
2022-11-05T21:29:53.005Z,10.50
2022-11-05T21:32:21.187Z,12.50
2022-11-05T21:34:48.662Z,11.60
2022-11-05T21:37:16.920Z,11.60
2022-11-05T21:39:44.946Z,10.80
2022-11-05T21:42:12.887Z,12.00
2022-11-05T21:44:41.187Z,10.90
2022-11-05T21:47:10.220Z,11.60
2022-11-05T21:49:37.365Z,11.90
2022-11-05T21:52:23.887Z,9.90
2022-11-05T21:55:10.586Z,11.70
2022-11-05T21:57:57.604Z,11.40
2022-11-05T22:00:25.159Z,12.90
2022-11-05T22:02:52.606Z,10.60
2022-11-05T22:05:20.386Z,10.60
2022-11-05T22:07:47.532Z,15.20
2022-11-05T22:10:16.696Z,13.10
2022-11-05T22:12:45.309Z,14.10
2022-11-05T22:15:13.493Z,13.30
2022-11-05T22:17:46.221Z,15.20
2022-11-05T22:20:14.945Z,15.60
2022-11-05T22:22:42.308Z,14.80
2022-11-05T22:25:09.736Z,14.50
2022-11-05T22:27:37.006Z,14.20
2022-11-05T22:30:04.597Z,12.90
2022-11-05T22:32:32.023Z,12.20
2022-11-05T22:34:59.286Z,11.20
2022-11-05T22:37:26.380Z,10.70
2022-11-05T22:39:53.529Z,12.10
2022-11-05T22:42:20.718Z,11.50
2022-11-05T22:44:47.855Z,11.10
2022-11-05T22:47:15.046Z,11.40
2022-11-05T22:49:42.242Z,11.10
2022-11-05T22:52:09.290Z,12.20
2022-11-05T22:54:39.387Z,11.90
2022-11-05T22:57:07.188Z,18.90
2022-11-05T22:59:34.649Z,12.10
2022-11-05T23:02:09.225Z,12.80
2022-11-05T23:04:38.073Z,11.30
2022-11-05T23:07:27.653Z,10.80
2022-11-05T23:10:15.189Z,10.20
2022-11-05T23:12:44.171Z,11.60
2022-11-05T23:15:31.993Z,11.10
2022-11-05T23:18:17.998Z,11.20
2022-11-05T23:21:03.988Z,11.10
2022-11-05T23:23:49.756Z,10.60
2022-11-05T23:26:36.490Z,10.00
2022-11-05T23:29:04.781Z,9.50
2022-11-05T23:31:51.176Z,11.30
2022-11-05T23:34:18.809Z,10.80
2022-11-05T23:37:04.452Z,10.40
2022-11-05T23:39:31.971Z,11.20
2022-11-05T23:42:18.366Z,10.00
2022-11-05T23:45:04.549Z,10.90
2022-11-05T23:47:50.557Z,10.80
2022-11-05T23:50:19.046Z,11.00
2022-11-05T23:52:46.275Z,10.80
2022-11-05T23:55:13.512Z,10.60
2022-11-05T23:57:41.167Z,10.50
